sensor_id;sensor_type;location;lat;lon;timestamp;pressure;altitude;pressure_sealevel;temperature;humidity
10706;BME280;5404;42.656;23.336;2022-07-15T00:01:32;94902.59;;;17.03;100.00
10706;BME280;5404;42.656;23.336;2022-07-15T00:03:59;94921.94;;;17.17;100.00
10706;BME280;5404;42.656;23.336;2022-07-15T00:06:25;94919.25;;;17.17;100.00
10706;BME280;5404;42.656;23.336;2022-07-15T00:08:50;94910.69;;;17.15;100.00
10706;BME280;5404;42.656;23.336;2022-07-15T00:11:16;94918.44;;;17.16;100.00
10706;BME280;5404;42.656;23.336;2022-07-15T00:13:42;94922.38;;;17.19;100.00
10706;BME280;5404;42.656;23.336;2022-07-15T00:16:07;94921.94;;;17.17;100.00
10706;BME280;5404;42.656;23.336;2022-07-15T00:18:33;94922.50;;;17.22;100.00
10706;BME280;5404;42.656;23.336;2022-07-15T00:20:58;94926.66;;;17.20;100.00
10706;BME280;5404;42.656;23.336;2022-07-15T00:23:23;94910.44;;;17.08;100.00
10706;BME280;5404;42.656;23.336;2022-07-15T00:25:50;94934.59;;;17.16;100.00
10706;BME280;5404;42.656;23.336;2022-07-15T00:28:15;94931.34;;;17.11;100.00
10706;BME280;5404;42.656;23.336;2022-07-15T00:30:42;94931.81;;;17.13;100.00
10706;BME280;5404;42.656;23.336;2022-07-15T00:33:08;94934.72;;;17.20;100.00
10706;BME280;5404;42.656;23.336;2022-07-15T00:35:37;94933.63;;;17.21;100.00
10706;BME280;5404;42.656;23.336;2022-07-15T00:38:06;94922.38;;;17.19;100.00
10706;BME280;5404;42.656;23.336;2022-07-15T00:40:46;94929.22;;;17.16;100.00
10706;BME280;5404;42.656;23.336;2022-07-15T00:43:12;94927.06;;;17.10;100.00
10706;BME280;5404;42.656;23.336;2022-07-15T00:45:38;94922.03;;;17.08;100.00
10706;BME280;5404;42.656;23.336;2022-07-15T00:48:04;94912.94;;;17.01;100.00
10706;BME280;5404;42.656;23.336;2022-07-15T00:50:30;94914.28;;;17.07;100.00
10706;BME280;5404;42.656;23.336;2022-07-15T00:53:08;94916.88;;;17.15;100.00
10706;BME280;5404;42.656;23.336;2022-07-15T00:55:43;94915.44;;;17.18;100.00
10706;BME280;5404;42.656;23.336;2022-07-15T00:58:13;94914.53;;;17.14;100.00
10706;BME280;5404;42.656;23.336;2022-07-15T01:00:41;94910.44;;;17.08;100.00
10706;BME280;5404;42.656;23.336;2022-07-15T01:03:08;94898.78;;;17.04;100.00
10706;BME280;5404;42.656;23.336;2022-07-15T01:05:34;94903.47;;;16.95;100.00
10706;BME280;5404;42.656;23.336;2022-07-15T01:08:01;94888.84;;;16.84;100.00
10706;BME280;5404;42.656;23.336;2022-07-15T01:10:27;94899.94;;;16.82;100.00
10706;BME280;5404;42.656;23.336;2022-07-15T01:12:52;94906.69;;;16.88;100.00
10706;BME280;5404;42.656;23.336;2022-07-15T01:15:19;94909.47;;;16.80;100.00
10706;BME280;5404;42.656;23.336;2022-07-15T01:17:45;94914.72;;;16.76;100.00
10706;BME280;5404;42.656;23.336;2022-07-15T01:20:12;94915.69;;;16.72;100.00
10706;BME280;5404;42.656;23.336;2022-07-15T01:22:39;94923.41;;;16.61;100.00
10706;BME280;5404;42.656;23.336;2022-07-15T01:25:05;94916.97;;;16.54;100.00
10706;BME280;5404;42.656;23.336;2022-07-15T01:27:31;94914.16;;;16.50;100.00
10706;BME280;5404;42.656;23.336;2022-07-15T01:29:58;94913.22;;;16.46;100.00
10706;BME280;5404;42.656;23.336;2022-07-15T01:32:25;94906.56;;;16.44;100.00
10706;BME280;5404;42.656;23.336;2022-07-15T01:34:51;94907.41;;;16.35;100.00
10706;BME280;5404;42.656;23.336;2022-07-15T01:37:17;94907.38;;;16.44;100.00
10706;BME280;5404;42.656;23.336;2022-07-15T01:39:43;94913.38;;;16.41;100.00
10706;BME280;5404;42.656;23.336;2022-07-15T01:42:08;94910.22;;;16.39;100.00
10706;BME280;5404;42.656;23.336;2022-07-15T01:44:34;94908.53;;;16.34;100.00
10706;BME280;5404;42.656;23.336;2022-07-15T01:47:00;94919.94;;;16.31;100.00
10706;BME280;5404;42.656;23.336;2022-07-15T01:49:25;94915.88;;;16.25;100.00
10706;BME280;5404;42.656;23.336;2022-07-15T01:51:56;94919.69;;;16.24;100.00
10706;BME280;5404;42.656;23.336;2022-07-15T01:54:22;94914.97;;;16.21;100.00
10706;BME280;5404;42.656;23.336;2022-07-15T01:56:49;94921.31;;;16.17;100.00
10706;BME280;5404;42.656;23.336;2022-07-15T01:59:15;94927.19;;;16.10;100.00
10706;BME280;5404;42.656;23.336;2022-07-15T02:01:40;94916.97;;;16.04;100.00
10706;BME280;5404;42.656;23.336;2022-07-15T02:04:07;94932.91;;;16.09;100.00
10706;BME280;5404;42.656;23.336;2022-07-15T02:06:33;94926.00;;;15.99;100.00
10706;BME280;5404;42.656;23.336;2022-07-15T02:08:58;94936.00;;;15.90;100.00
10706;BME280;5404;42.656;23.336;2022-07-15T02:11:24;94926.06;;;15.82;100.00
10706;BME280;5404;42.656;23.336;2022-07-15T02:13:50;94930.34;;;15.83;100.00
10706;BME280;5404;42.656;23.336;2022-07-15T02:16:19;94930.31;;;15.92;100.00
10706;BME280;5404;42.656;23.336;2022-07-15T02:18:44;94937.25;;;15.93;100.00
10706;BME280;5404;42.656;23.336;2022-07-15T02:21:10;94940.22;;;16.00;100.00
10706;BME280;5404;42.656;23.336;2022-07-15T02:23:35;94940.22;;;16.00;100.00
10706;BME280;5404;42.656;23.336;2022-07-15T02:26:01;94932.47;;;15.98;100.00
10706;BME280;5404;42.656;23.336;2022-07-15T02:28:26;94936.16;;;15.94;100.00
10706;BME280;5404;42.656;23.336;2022-07-15T02:30:52;94937.56;;;15.91;100.00
10706;BME280;5404;42.656;23.336;2022-07-15T02:33:17;94942.34;;;15.86;100.00
10706;BME280;5404;42.656;23.336;2022-07-15T02:35:43;94939.66;;;15.86;100.00
10706;BME280;5404;42.656;23.336;2022-07-15T02:38:08;94943.28;;;15.90;100.00
10706;BME280;5404;42.656;23.336;2022-07-15T02:40:34;94936.38;;;15.80;100.00
10706;BME280;5404;42.656;23.336;2022-07-15T02:43:02;94936.09;;;15.73;100.00
10706;BME280;5404;42.656;23.336;2022-07-15T02:45:30;94936.09;;;15.73;100.00
10706;BME280;5404;42.656;23.336;2022-07-15T02:47:56;94925.97;;;15.70;100.00
10706;BME280;5404;42.656;23.336;2022-07-15T02:50:21;94936.72;;;15.70;100.00
10706;BME280;5404;42.656;23.336;2022-07-15T02:52:47;94940.50;;;15.78;100.00
10706;BME280;5404;42.656;23.336;2022-07-15T02:55:14;94926.78;;;15.71;100.00
10706;BME280;5404;42.656;23.336;2022-07-15T02:57:40;94934.50;;;15.72;100.00
10706;BME280;5404;42.656;23.336;2022-07-15T03:00:09;94930.59;;;15.70;100.00
10706;BME280;5404;42.656;23.336;2022-07-15T03:02:34;94923.31;;;15.62;100.00
10706;BME280;5404;42.656;23.336;2022-07-15T03:05:00;94932.66;;;15.64;100.00
10706;BME280;5404;42.656;23.336;2022-07-15T03:07:26;94909.03;;;15.49;100.00
10706;BME280;5404;42.656;23.336;2022-07-15T03:09:56;94931.41;;;15.53;100.00
10706;BME280;5404;42.656;23.336;2022-07-15T03:12:21;94945.50;;;15.50;100.00
10706;BME280;5404;42.656;23.336;2022-07-15T03:14:47;94930.03;;;15.47;100.00
10706;BME280;5404;42.656;23.336;2022-07-15T03:17:13;94943.94;;;15.49;100.00
10706;BME280;5404;42.656;23.336;2022-07-15T03:19:38;94934.91;;;15.54;100.00
10706;BME280;5404;42.656;23.336;2022-07-15T03:22:05;94929.34;;;15.59;100.00
10706;BME280;5404;42.656;23.336;2022-07-15T03:24:30;94923.19;;;15.96;100.00
10706;BME280;5404;42.656;23.336;2022-07-15T03:26:56;94917.28;;;16.02;100.00
10706;BME280;5404;42.656;23.336;2022-07-15T03:29:21;94921.63;;;16.15;100.00
10706;BME280;5404;42.656;23.336;2022-07-15T03:31:47;94916.31;;;16.57;100.00
10706;BME280;5404;42.656;23.336;2022-07-15T03:34:12;94906.56;;;16.85;100.00
10706;BME280;5404;42.656;23.336;2022-07-15T03:36:38;94904.31;;;16.75;100.00
10706;BME280;5404;42.656;23.336;2022-07-15T03:39:07;94912.19;;;16.59;100.00
10706;BME280;5404;42.656;23.336;2022-07-15T03:41:33;94899.13;;;16.49;100.00
10706;BME280;5404;42.656;23.336;2022-07-15T03:44:00;94910.31;;;16.51;100.00
10706;BME280;5404;42.656;23.336;2022-07-15T03:46:26;94887.28;;;16.42;100.00
10706;BME280;5404;42.656;23.336;2022-07-15T03:48:52;94878.44;;;16.41;100.00
10706;BME280;5404;42.656;23.336;2022-07-15T03:51:18;94884.75;;;16.66;100.00
10706;BME280;5404;42.656;23.336;2022-07-15T03:53:44;94885.47;;;16.75;100.00
10706;BME280;5404;42.656;23.336;2022-07-15T03:56:10;94886.84;;;16.93;100.00
10706;BME280;5404;42.656;23.336;2022-07-15T03:58:35;94891.19;;;17.06;100.00
10706;BME280;5404;42.656;23.336;2022-07-15T04:01:00;94876.16;;;17.17;100.00
10706;BME280;5404;42.656;23.336;2022-07-15T04:03:26;94880.31;;;17.14;100.00
10706;BME280;5404;42.656;23.336;2022-07-15T04:05:52;94868.53;;;17.19;100.00
10706;BME280;5404;42.656;23.336;2022-07-15T04:08:18;94881.13;;;17.39;100.00
10706;BME280;5404;42.656;23.336;2022-07-15T04:10:43;94874.91;;;17.47;100.00
10706;BME280;5404;42.656;23.336;2022-07-15T04:13:09;94875.56;;;17.56;100.00
10706;BME280;5404;42.656;23.336;2022-07-15T04:15:34;94880.41;;;17.51;100.00
10706;BME280;5404;42.656;23.336;2022-07-15T04:18:00;94874.56;;;17.61;100.00
10706;BME280;5404;42.656;23.336;2022-07-15T04:20:26;94873.66;;;17.57;100.00
10706;BME280;5404;42.656;23.336;2022-07-15T04:22:51;94866.25;;;17.66;100.00
10706;BME280;5404;42.656;23.336;2022-07-15T04:25:19;94859.41;;;17.80;100.00
10706;BME280;5404;42.656;23.336;2022-07-15T04:27:45;94860.63;;;17.95;100.00
10706;BME280;5404;42.656;23.336;2022-07-15T04:30:11;94861.41;;;18.07;100.00
10706;BME280;5404;42.656;23.336;2022-07-15T04:32:38;94865.88;;;18.15;100.00
10706;BME280;5404;42.656;23.336;2022-07-15T04:35:04;94854.31;;;18.03;100.00
10706;BME280;5404;42.656;23.336;2022-07-15T04:37:30;94873.06;;;18.23;100.00
10706;BME280;5404;42.656;23.336;2022-07-15T04:39:55;94875.81;;;18.39;100.00
10706;BME280;5404;42.656;23.336;2022-07-15T04:42:21;94872.47;;;18.42;100.00
10706;BME280;5404;42.656;23.336;2022-07-15T04:44:48;94868.06;;;18.49;100.00
10706;BME280;5404;42.656;23.336;2022-07-15T04:47:14;94872.13;;;18.55;100.00
10706;BME280;5404;42.656;23.336;2022-07-15T04:49:40;94865.34;;;18.62;100.00
10706;BME280;5404;42.656;23.336;2022-07-15T04:52:24;94863.63;;;18.69;100.00
10706;BME280;5404;42.656;23.336;2022-07-15T04:54:51;94865.25;;;18.86;100.00
10706;BME280;5404;42.656;23.336;2022-07-15T04:57:17;94857.78;;;18.95;100.00
10706;BME280;5404;42.656;23.336;2022-07-15T04:59:43;94852.81;;;18.97;100.00
10706;BME280;5404;42.656;23.336;2022-07-15T05:02:08;94870.00;;;19.20;100.00
10706;BME280;5404;42.656;23.336;2022-07-15T05:04:34;94866.28;;;19.24;100.00
10706;BME280;5404;42.656;23.336;2022-07-15T05:06:59;94862.66;;;19.32;100.00
10706;BME280;5404;42.656;23.336;2022-07-15T05:09:25;94874.19;;;19.45;100.00
10706;BME280;5404;42.656;23.336;2022-07-15T05:11:50;94864.56;;;19.47;100.00
10706;BME280;5404;42.656;23.336;2022-07-15T05:14:16;94863.03;;;19.46;100.00
10706;BME280;5404;42.656;23.336;2022-07-15T05:16:41;94866.16;;;19.48;100.00
10706;BME280;5404;42.656;23.336;2022-07-15T05:19:07;94868.00;;;19.60;100.00
10706;BME280;5404;42.656;23.336;2022-07-15T05:21:33;94869.19;;;19.62;100.00
10706;BME280;5404;42.656;23.336;2022-07-15T05:23:59;94866.16;;;19.64;100.00
10706;BME280;5404;42.656;23.336;2022-07-15T05:26:24;94859.69;;;19.68;100.00
10706;BME280;5404;42.656;23.336;2022-07-15T05:28:50;94872.16;;;19.73;100.00
10706;BME280;5404;42.656;23.336;2022-07-15T05:31:15;94854.47;;;19.76;100.00
10706;BME280;5404;42.656;23.336;2022-07-15T05:33:41;94855.84;;;19.69;100.00
10706;BME280;5404;42.656;23.336;2022-07-15T05:36:14;94857.88;;;19.88;100.00
10706;BME280;5404;42.656;23.336;2022-07-15T05:38:40;94851.72;;;20.07;100.00
10706;BME280;5404;42.656;23.336;2022-07-15T05:41:06;94844.28;;;20.19;100.00
10706;BME280;5404;42.656;23.336;2022-07-15T05:43:31;94854.56;;;20.29;100.00
10706;BME280;5404;42.656;23.336;2022-07-15T05:45:56;94851.75;;;20.41;100.00
10706;BME280;5404;42.656;23.336;2022-07-15T05:48:22;94844.47;;;20.64;100.00
10706;BME280;5404;42.656;23.336;2022-07-15T05:50:48;94846.47;;;20.67;100.00
10706;BME280;5404;42.656;23.336;2022-07-15T05:53:14;94848.19;;;20.75;100.00
10706;BME280;5404;42.656;23.336;2022-07-15T05:55:40;94857.44;;;20.74;100.00
10706;BME280;5404;42.656;23.336;2022-07-15T05:58:09;94849.81;;;20.80;100.00
10706;BME280;5404;42.656;23.336;2022-07-15T06:00:36;94838.97;;;20.80;100.00
10706;BME280;5404;42.656;23.336;2022-07-15T06:03:02;94847.25;;;21.06;100.00
10706;BME280;5404;42.656;23.336;2022-07-15T06:05:28;94848.28;;;20.98;100.00
10706;BME280;5404;42.656;23.336;2022-07-15T06:07:54;94839.69;;;20.96;100.00
10706;BME280;5404;42.656;23.336;2022-07-15T06:10:20;94839.19;;;21.10;100.00
10706;BME280;5404;42.656;23.336;2022-07-15T06:12:45;94839.75;;;21.19;100.00
10706;BME280;5404;42.656;23.336;2022-07-15T06:15:11;94835.09;;;21.19;100.00
10706;BME280;5404;42.656;23.336;2022-07-15T06:17:37;94845.00;;;21.31;100.00
10706;BME280;5404;42.656;23.336;2022-07-15T06:20:03;94843.13;;;21.35;100.00
10706;BME280;5404;42.656;23.336;2022-07-15T06:22:29;94849.19;;;21.28;100.00
10706;BME280;5404;42.656;23.336;2022-07-15T06:24:54;94842.63;;;21.29;100.00
10706;BME280;5404;42.656;23.336;2022-07-15T06:27:20;94849.63;;;21.30;100.00
10706;BME280;5404;42.656;23.336;2022-07-15T06:29:49;94848.09;;;21.33;100.00
10706;BME280;5404;42.656;23.336;2022-07-15T06:32:15;94854.22;;;21.49;100.00
10706;BME280;5404;42.656;23.336;2022-07-15T06:34:40;94851.38;;;21.64;100.00
10706;BME280;5404;42.656;23.336;2022-07-15T06:37:07;94853.41;;;21.71;100.00
10706;BME280;5404;42.656;23.336;2022-07-15T06:39:33;94850.91;;;21.81;100.00
10706;BME280;5404;42.656;23.336;2022-07-15T06:41:59;94843.34;;;21.94;100.00
10706;BME280;5404;42.656;23.336;2022-07-15T06:44:25;94845.81;;;22.03;100.00
10706;BME280;5404;42.656;23.336;2022-07-15T06:46:50;94847.63;;;22.21;100.00
10706;BME280;5404;42.656;23.336;2022-07-15T06:49:16;94841.72;;;22.16;100.00
10706;BME280;5404;42.656;23.336;2022-07-15T06:51:41;94839.97;;;22.27;100.00
10706;BME280;5404;42.656;23.336;2022-07-15T06:54:07;94841.47;;;22.24;100.00
10706;BME280;5404;42.656;23.336;2022-07-15T06:56:33;94831.41;;;22.25;100.00
10706;BME280;5404;42.656;23.336;2022-07-15T06:58:59;94846.41;;;22.45;100.00
10706;BME280;5404;42.656;23.336;2022-07-15T07:01:24;94840.06;;;22.63;100.00
10706;BME280;5404;42.656;23.336;2022-07-15T07:03:50;94834.56;;;22.56;100.00
10706;BME280;5404;42.656;23.336;2022-07-15T07:06:16;94836.63;;;22.66;100.00
10706;BME280;5404;42.656;23.336;2022-07-15T07:08:41;94833.97;;;22.70;100.00
10706;BME280;5404;42.656;23.336;2022-07-15T07:11:07;94836.44;;;22.82;100.00
10706;BME280;5404;42.656;23.336;2022-07-15T07:13:32;94832.69;;;22.93;100.00
10706;BME280;5404;42.656;23.336;2022-07-15T07:15:58;94834.97;;;22.91;100.00
10706;BME280;5404;42.656;23.336;2022-07-15T07:18:24;94835.09;;;23.02;100.00
10706;BME280;5404;42.656;23.336;2022-07-15T07:20:50;94829.81;;;23.16;100.00
10706;BME280;5404;42.656;23.336;2022-07-15T07:23:15;94836.25;;;23.34;100.00
10706;BME280;5404;42.656;23.336;2022-07-15T07:25:41;94826.38;;;23.23;100.00
10706;BME280;5404;42.656;23.336;2022-07-15T07:28:07;94810.59;;;23.32;100.00
10706;BME280;5404;42.656;23.336;2022-07-15T07:30:33;94815.28;;;23.35;100.00
10706;BME280;5404;42.656;23.336;2022-07-15T07:32:59;94824.38;;;23.53;100.00
10706;BME280;5404;42.656;23.336;2022-07-15T07:35:25;94815.06;;;23.54;100.00
10706;BME280;5404;42.656;23.336;2022-07-15T07:37:50;94818.66;;;23.65;100.00
10706;BME280;5404;42.656;23.336;2022-07-15T07:40:16;94819.16;;;23.81;100.00
10706;BME280;5404;42.656;23.336;2022-07-15T07:42:43;94814.25;;;23.97;100.00
10706;BME280;5404;42.656;23.336;2022-07-15T07:45:10;94817.88;;;24.15;100.00
10706;BME280;5404;42.656;23.336;2022-07-15T07:47:38;94817.91;;;24.22;100.00
10706;BME280;5404;42.656;23.336;2022-07-15T07:50:07;94822.22;;;24.23;100.00
10706;BME280;5404;42.656;23.336;2022-07-15T07:52:33;94824.66;;;24.46;100.00
10706;BME280;5404;42.656;23.336;2022-07-15T07:54:59;94825.63;;;24.13;100.00
10706;BME280;5404;42.656;23.336;2022-07-15T07:57:24;94823.78;;;24.28;100.00
10706;BME280;5404;42.656;23.336;2022-07-15T07:59:50;94830.53;;;24.55;100.00
10706;BME280;5404;42.656;23.336;2022-07-15T08:02:15;94829.13;;;24.71;100.00
10706;BME280;5404;42.656;23.336;2022-07-15T08:04:41;94818.25;;;24.85;100.00
10706;BME280;5404;42.656;23.336;2022-07-15T08:07:07;94818.25;;;24.89;100.00
10706;BME280;5404;42.656;23.336;2022-07-15T08:09:33;94822.94;;;24.85;100.00
10706;BME280;5404;42.656;23.336;2022-07-15T08:11:58;94806.22;;;24.93;99.85
10706;BME280;5404;42.656;23.336;2022-07-15T08:14:24;94809.78;;;25.18;100.00
10706;BME280;5404;42.656;23.336;2022-07-15T08:16:50;94813.72;;;25.31;97.82
10706;BME280;5404;42.656;23.336;2022-07-15T08:19:16;94808.25;;;25.31;93.24
10706;BME280;5404;42.656;23.336;2022-07-15T08:21:43;94806.69;;;25.30;93.29
10706;BME280;5404;42.656;23.336;2022-07-15T08:24:09;94795.78;;;25.27;95.23
10706;BME280;5404;42.656;23.336;2022-07-15T08:26:35;94793.50;;;25.47;89.58
10706;BME280;5404;42.656;23.336;2022-07-15T08:29:02;94799.34;;;25.52;87.22
10706;BME280;5404;42.656;23.336;2022-07-15T08:31:27;94803.63;;;25.67;85.38
10706;BME280;5404;42.656;23.336;2022-07-15T08:33:53;94813.75;;;25.60;79.97
10706;BME280;5404;42.656;23.336;2022-07-15T08:36:20;94809.09;;;25.78;80.96
10706;BME280;5404;42.656;23.336;2022-07-15T08:38:46;94795.47;;;25.81;79.22
10706;BME280;5404;42.656;23.336;2022-07-15T08:41:15;94804.00;;;25.94;76.88
10706;BME280;5404;42.656;23.336;2022-07-15T08:43:41;94802.47;;;25.89;74.70
10706;BME280;5404;42.656;23.336;2022-07-15T08:46:07;94787.22;;;25.95;75.42
10706;BME280;5404;42.656;23.336;2022-07-15T08:48:36;94795.44;;;26.13;76.88
10706;BME280;5404;42.656;23.336;2022-07-15T08:51:06;94791.84;;;26.40;74.73
10706;BME280;5404;42.656;23.336;2022-07-15T08:53:35;94791.47;;;26.31;74.78
10706;BME280;5404;42.656;23.336;2022-07-15T08:56:00;94796.94;;;26.38;73.02
10706;BME280;5404;42.656;23.336;2022-07-15T08:58:26;94788.75;;;26.35;68.38
10706;BME280;5404;42.656;23.336;2022-07-15T09:00:52;94788.69;;;26.53;70.90
10706;BME280;5404;42.656;23.336;2022-07-15T09:03:17;94792.94;;;26.71;71.21
10706;BME280;5404;42.656;23.336;2022-07-15T09:05:43;94788.19;;;26.93;68.63
10706;BME280;5404;42.656;23.336;2022-07-15T09:08:14;94786.91;;;27.08;69.50
10706;BME280;5404;42.656;23.336;2022-07-15T09:13:33;94787.03;;;27.55;68.95
10706;BME280;5404;42.656;23.336;2022-07-15T09:16:04;94780.28;;;30.19;59.74
10706;BME280;5404;42.656;23.336;2022-07-15T09:18:33;94776.94;;;33.02;47.33
10706;BME280;5404;42.656;23.336;2022-07-15T09:20:59;94775.00;;;34.71;40.95
10706;BME280;5404;42.656;23.336;2022-07-15T09:23:27;94779.78;;;36.06;35.02
10706;BME280;5404;42.656;23.336;2022-07-15T09:25:58;94783.31;;;36.82;32.34
10706;BME280;5404;42.656;23.336;2022-07-15T09:28:40;94785.28;;;36.73;31.48
10706;BME280;5404;42.656;23.336;2022-07-15T09:31:06;94773.56;;;36.42;30.53
10706;BME280;5404;42.656;23.336;2022-07-15T09:33:58;94768.25;;;37.43;28.16
10706;BME280;5404;42.656;23.336;2022-07-15T09:36:27;94780.50;;;38.58;27.41
10706;BME280;5404;42.656;23.336;2022-07-15T09:39:03;94790.19;;;40.32;24.88
10706;BME280;5404;42.656;23.336;2022-07-15T09:41:30;94783.94;;;42.05;22.55
10706;BME280;5404;42.656;23.336;2022-07-15T09:44:20;94781.03;;;41.94;22.56
10706;BME280;5404;42.656;23.336;2022-07-15T09:49:14;94778.63;;;42.13;22.30
10706;BME280;5404;42.656;23.336;2022-07-15T09:52:00;94777.63;;;43.28;20.92
10706;BME280;5404;42.656;23.336;2022-07-15T09:54:31;94780.31;;;42.84;20.75
10706;BME280;5404;42.656;23.336;2022-07-15T09:57:00;94777.84;;;40.99;21.95
10706;BME280;5404;42.656;23.336;2022-07-15T09:59:27;94778.13;;;40.40;22.51
10706;BME280;5404;42.656;23.336;2022-07-15T10:01:53;94780.00;;;39.80;22.75
10706;BME280;5404;42.656;23.336;2022-07-15T10:04:20;94761.75;;;39.49;23.67
10706;BME280;5404;42.656;23.336;2022-07-15T10:06:48;94768.75;;;42.17;21.90
10706;BME280;5404;42.656;23.336;2022-07-15T10:09:14;94771.56;;;38.78;24.63
10706;BME280;5404;42.656;23.336;2022-07-15T10:11:47;94764.59;;;39.99;24.26
10706;BME280;5404;42.656;23.336;2022-07-15T10:17:21;94771.38;;;42.32;21.52
10706;BME280;5404;42.656;23.336;2022-07-15T10:28:10;94776.56;;;42.44;21.00
10706;BME280;5404;42.656;23.336;2022-07-15T10:30:39;94762.91;;;42.68;20.95
10706;BME280;5404;42.656;23.336;2022-07-15T10:35:42;94764.69;;;43.58;20.29
10706;BME280;5404;42.656;23.336;2022-07-15T10:41:14;94753.84;;;40.87;21.64
10706;BME280;5404;42.656;23.336;2022-07-15T10:43:52;94747.84;;;41.19;21.58
10706;BME280;5404;42.656;23.336;2022-07-15T10:54:03;94734.19;;;40.41;22.50
10706;BME280;5404;42.656;23.336;2022-07-15T10:56:35;94731.84;;;41.00;21.99
10706;BME280;5404;42.656;23.336;2022-07-15T10:59:18;94735.44;;;41.26;21.63
10706;BME280;5404;42.656;23.336;2022-07-15T11:01:49;94733.63;;;41.80;21.45
10706;BME280;5404;42.656;23.336;2022-07-15T11:12:21;94730.59;;;42.25;20.62
10706;BME280;5404;42.656;23.336;2022-07-15T11:15:04;94721.13;;;42.17;20.80
10706;BME280;5404;42.656;23.336;2022-07-15T11:20:02;94719.38;;;41.52;20.33
10706;BME280;5404;42.656;23.336;2022-07-15T11:22:31;94713.41;;;41.39;20.69
10706;BME280;5404;42.656;23.336;2022-07-15T11:24:57;94716.81;;;40.51;20.49
10706;BME280;5404;42.656;23.336;2022-07-15T11:27:24;94705.75;;;38.42;22.11
10706;BME280;5404;42.656;23.336;2022-07-15T11:29:55;94722.22;;;36.82;24.15
10706;BME280;5404;42.656;23.336;2022-07-15T11:32:24;94708.03;;;35.86;25.21
10706;BME280;5404;42.656;23.336;2022-07-15T11:34:52;94710.91;;;35.25;25.41
10706;BME280;5404;42.656;23.336;2022-07-15T11:42:31;94706.66;;;33.03;28.00
10706;BME280;5404;42.656;23.336;2022-07-15T11:45:31;94705.75;;;32.40;30.38
10706;BME280;5404;42.656;23.336;2022-07-15T11:47:57;94693.13;;;32.10;30.60
10706;BME280;5404;42.656;23.336;2022-07-15T11:50:23;94694.28;;;32.25;29.97
10706;BME280;5404;42.656;23.336;2022-07-15T11:52:48;94698.69;;;32.23;30.45
10706;BME280;5404;42.656;23.336;2022-07-15T11:55:16;94696.91;;;31.84;30.26
10706;BME280;5404;42.656;23.336;2022-07-15T11:57:45;94694.88;;;31.88;30.90
10706;BME280;5404;42.656;23.336;2022-07-15T12:00:12;94691.19;;;31.46;30.86
10706;BME280;5404;42.656;23.336;2022-07-15T12:02:38;94686.81;;;31.49;31.72
10706;BME280;5404;42.656;23.336;2022-07-15T12:05:06;94690.66;;;31.51;31.95
10706;BME280;5404;42.656;23.336;2022-07-15T12:07:58;94686.72;;;31.36;32.10
10706;BME280;5404;42.656;23.336;2022-07-15T12:10:33;94685.75;;;30.91;31.17
10706;BME280;5404;42.656;23.336;2022-07-15T12:12:59;94684.13;;;30.74;32.74
10706;BME280;5404;42.656;23.336;2022-07-15T12:15:28;94669.00;;;30.86;32.30
10706;BME280;5404;42.656;23.336;2022-07-15T12:17:54;94662.91;;;30.94;32.05
10706;BME280;5404;42.656;23.336;2022-07-15T12:20:20;94668.31;;;31.33;32.99
10706;BME280;5404;42.656;23.336;2022-07-15T12:23:07;94686.06;;;31.77;32.11
10706;BME280;5404;42.656;23.336;2022-07-15T12:25:33;94676.53;;;31.65;31.31
10706;BME280;5404;42.656;23.336;2022-07-15T12:27:58;94686.88;;;31.61;32.11
10706;BME280;5404;42.656;23.336;2022-07-15T12:30:33;94685.84;;;31.55;32.09
10706;BME280;5404;42.656;23.336;2022-07-15T12:33:19;94677.31;;;31.34;32.00
10706;BME280;5404;42.656;23.336;2022-07-15T12:35:45;94674.13;;;31.67;31.20
10706;BME280;5404;42.656;23.336;2022-07-15T12:38:28;94678.94;;;31.96;32.03
10706;BME280;5404;42.656;23.336;2022-07-15T12:41:09;94666.25;;;32.27;32.88
10706;BME280;5404;42.656;23.336;2022-07-15T12:43:53;94675.56;;;32.33;30.84
10706;BME280;5404;42.656;23.336;2022-07-15T12:46:20;94679.13;;;32.17;31.48
10706;BME280;5404;42.656;23.336;2022-07-15T12:48:47;94675.31;;;31.99;31.35
10706;BME280;5404;42.656;23.336;2022-07-15T12:51:16;94669.38;;;32.00;31.33
10706;BME280;5404;42.656;23.336;2022-07-15T12:53:42;94663.66;;;32.36;31.26
10706;BME280;5404;42.656;23.336;2022-07-15T12:56:07;94659.94;;;32.42;30.74
10706;BME280;5404;42.656;23.336;2022-07-15T12:58:33;94661.09;;;32.70;31.07
10706;BME280;5404;42.656;23.336;2022-07-15T13:01:13;94667.38;;;32.58;30.65
10706;BME280;5404;42.656;23.336;2022-07-15T13:03:40;94663.50;;;32.96;30.79
10706;BME280;5404;42.656;23.336;2022-07-15T13:06:07;94657.06;;;32.99;30.48
10706;BME280;5404;42.656;23.336;2022-07-15T13:08:36;94660.47;;;32.91;30.43
10706;BME280;5404;42.656;23.336;2022-07-15T13:11:04;94644.81;;;33.13;30.32
10706;BME280;5404;42.656;23.336;2022-07-15T13:13:32;94655.97;;;33.10;29.84
10706;BME280;5404;42.656;23.336;2022-07-15T13:15:58;94662.50;;;33.53;29.78
10706;BME280;5404;42.656;23.336;2022-07-15T13:18:25;94644.81;;;33.13;29.74
10706;BME280;5404;42.656;23.336;2022-07-15T13:20:51;94661.50;;;33.47;29.85
10706;BME280;5404;42.656;23.336;2022-07-15T13:23:17;94656.88;;;33.91;29.59
10706;BME280;5404;42.656;23.336;2022-07-15T13:25:44;94653.09;;;33.51;30.27
10706;BME280;5404;42.656;23.336;2022-07-15T13:28:11;94653.97;;;33.60;30.57
10706;BME280;5404;42.656;23.336;2022-07-15T13:30:37;94644.03;;;33.50;30.16
10706;BME280;5404;42.656;23.336;2022-07-15T13:33:04;94637.09;;;33.80;29.50
10706;BME280;5404;42.656;23.336;2022-07-15T13:35:30;94652.69;;;34.21;29.35
10706;BME280;5404;42.656;23.336;2022-07-15T13:37:55;94652.94;;;34.13;29.04
10706;BME280;5404;42.656;23.336;2022-07-15T13:40:21;94635.88;;;34.37;28.78